HOURLY OBS INDEX

010

Great Southern & Central Wheat Belt

BONNIE ROCK AG STATION

Site: 010GBR
Alt: 353 m
68km ENE of BENCUBBIN


  Time     Wind        Temp  DP   Baro     Rain since   Rain past  Vis(m), Cloud(base in m), Weather
  local        km/h                         9am  last   hr   10m    
Mon 18:00  ESE 11/ 19  34.8 14.3  ------    0.0   0.0   0.0   0.0   ----- 
Mon 18:00  ESE 11/ 19  34.8 14.3  ------    0.0   0.0  ----   0.0   ----- 
Mon 18:00  ESE 11/ 19  34.8 14.3  ------    0.0   0.0  ----   0.0   ----- 
Mon 18:00  ESE 11/ 19  34.8 14.3  ------    0.0   0.0  ----   0.0   ----- 
Mon 18:30  SSE 11/ 19  34.5 12.6  ------    0.0   0.0   0.0   0.0   ----- 
Mon 18:30  SSE 11/ 19  34.5 12.6  ------    0.0   0.0  ----   0.0   ----- 
Mon 19:00  SSE  9/ 15  33.5 12.7  ------    0.0   0.0   0.0   0.0   ----- 
Mon 19:30    S  6/  9  32.0 12.6  ------    0.0   0.0   0.0   0.0   ----- 
Mon 19:30    S  6/  9  32.0 12.6  ------    0.0   0.0  ----   0.0   ----- 
Mon 20:00  SSW  4/  7  30.6 12.4  ------    0.0   0.0   0.0   0.0   ----- 
Mon 20:30   SW  6/ 15  30.6 12.5  ------    0.0   0.0   0.0   0.0   ----- 
Mon 21:00  SSW  9/ 17  30.9 11.8  ------    0.0   0.0   0.0   0.0   ----- 
Mon 21:30   SW  7/ 15  30.0 10.5  ------    0.0   0.0   0.0   0.0   ----- 
Mon 21:30   SW  7/ 15  30.0 10.5  ------    0.0   0.0  ----   0.0   ----- 
Mon 22:00  WSW 13/ 22  29.7 10.7  ------    0.0   0.0   0.0   0.0   ----- 
Mon 22:00  WSW 13/ 22  29.7 10.7  ------    0.0   0.0  ----   0.0   ----- 
Mon 22:30  SSW 17/ 26  28.9 11.4  ------    0.0   0.0   0.0   0.0   ----- 
Mon 23:00  SSE 13/ 24  27.0 13.6  ------    0.0   0.0   0.0   0.0   ----- 
Mon 23:00  SSE 13/ 24  27.0 13.6  ------    0.0   0.0  ----   0.0   ----- 

BROOKTON AG STATION

Site: 010RKT
Alt: 250m
2km S of BROOKTON


  Time     Wind        Temp  DP   Baro     Rain since   Rain past  Vis(m), Cloud(base in m), Weather
  local        km/h                         9am  last   hr   10m    
Mon 18:00   SW 17/ 30  32.7  7.4  ------    0.0   0.0   0.0   0.0   ----- 
Mon 18:00   SW 17/ 30  32.7  7.4  ------    0.0   0.0  ----   0.0   ----- 
Mon 18:00   SW 17/ 30  32.7  7.4  ------    0.0   0.0  ----   0.0   ----- 
Mon 18:00   SW 17/ 30  32.7  7.4  ------    0.0   0.0  ----   0.0   ----- 
Mon 18:30   SW 13/ 22  32.1  7.1  ------    0.0   0.0   0.0   0.0   ----- 
Mon 18:30   SW 13/ 22  32.1  7.1  ------    0.0   0.0  ----   0.0   ----- 
Mon 19:00   SW 11/ 22  30.8  6.8  ------    0.0   0.0   0.0   0.0   ----- 
Mon 19:30  WSW 17/ 26  29.1 12.0  ------    0.0   0.0   0.0   0.0   ----- 
Mon 19:30  WSW 17/ 26  29.1 12.0  ------    0.0   0.0  ----   0.0   ----- 
Mon 20:00  WSW 19/ 32  27.7 12.7  ------    0.0   0.0   0.0   0.0   ----- 
Mon 20:30   SW 15/ 26  26.5 12.6  ------    0.0   0.0   0.0   0.0   ----- 
Mon 20:30   SW 15/ 26  26.5 12.6  ------    0.0   0.0  ----   0.0   ----- 
Mon 21:00   SW 15/ 24  25.7 12.5  ------    0.0   0.0   0.0   0.0   ----- 
Mon 21:00   SW 15/ 24  25.7 12.5  ------    0.0   0.0  ----   0.0   ----- 
Mon 21:30  SSW 17/ 26  25.0 12.6  ------    0.0   0.0   0.0   0.0   ----- 
Mon 21:30  SSW 17/ 26  25.0 12.6  ------    0.0   0.0  ----   0.0   ----- 
Mon 22:00  ESE 19/ 32  24.6 13.1  ------    0.0   0.0   0.0   0.0   ----- 
Mon 22:00  ESE 19/ 32  24.6 13.1  ------    0.0   0.0  ----   0.0   ----- 
Mon 22:30   SE 17/ 26  23.5 12.6  ------    0.0   0.0   0.0   0.0   ----- 
Mon 23:00   SE 11/ 19  22.3 12.3  ------    0.0   0.0   0.0   0.0   ----- 
Mon 23:00   SE 11/ 19  22.3 12.3  ------    0.0   0.0  ----   0.0   ----- 

BURRACOPPIN SOUTH AG STATION

Site: 010CNS
Alt: 420m
72km SW of SOUTHERN CROSS


  Time     Wind        Temp  DP   Baro     Rain since   Rain past  Vis(m), Cloud(base in m), Weather
  local        km/h                         9am  last   hr   10m    
Mon 18:00    S  6/ 13  34.6 11.0  ------    0.0   0.0   0.0   0.0   ----- 
Mon 18:00    S  6/ 13  34.6 11.0  ------    0.0   0.0  ----   0.0   ----- 
Mon 18:00    S  6/ 13  34.6 11.0  ------    0.0   0.0  ----   0.0   ----- 
Mon 18:00    S  6/ 13  34.6 11.0  ------    0.0   0.0  ----   0.0   ----- 
Mon 18:30  SSE  6/ 11  34.0 11.0  ------    0.0   0.0   0.0   0.0   ----- 
Mon 18:30  SSE  6/ 11  34.0 11.0  ------    0.0   0.0  ----   0.0   ----- 
Mon 19:00    S  9/ 24  32.2 10.8  ------    0.0   0.0   0.0   0.0   ----- 
Mon 19:30  SSE  4/ 11  29.4 12.3  ------    0.0   0.0   0.0   0.0   ----- 
Mon 19:30  SSE  4/ 11  29.4 12.3  ------    0.0   0.0  ----   0.0   ----- 
Mon 20:00  SSE 15/ 32  27.7 14.1  ------    0.0   0.0   0.0   0.0   ----- 
Mon 20:30   SE 15/ 26  25.0 14.5  ------    0.0   0.0   0.0   0.0   ----- 
Mon 20:30   SE 15/ 26  25.0 14.5  ------    0.0   0.0  ----   0.0   ----- 
Mon 21:00   SE 17/ 28  23.2 14.8  ------    0.0   0.0   0.0   0.0   ----- 
Mon 21:00   SE 17/ 28  23.2 14.8  ------    0.0   0.0  ----   0.0   ----- 
Mon 21:30   SE 15/ 24  22.9 14.8  ------    0.0   0.0   0.0   0.0   ----- 
Mon 21:30   SE 15/ 24  22.9 14.8  ------    0.0   0.0  ----   0.0   ----- 
Mon 22:00  ESE 15/ 24  22.5 14.4  ------    0.0   0.0   0.0   0.0   ----- 
Mon 22:00  ESE 15/ 24  22.5 14.4  ------    0.0   0.0  ----   0.0   ----- 
Mon 22:30   SE 13/ 20  21.5 14.1  ------    0.0   0.0   0.0   0.0   ----- 
Mon 23:00   SE 13/ 24  20.7 14.0  ------    0.0   0.0   0.0   0.0   ----- 
Mon 23:00   SE 13/ 24  20.7 14.0  ------    0.0   0.0  ----   0.0   ----- 

CUNDERDIN AIRFIELD

Site: 010286
Alt: 216.7m
53km E of NORTHAM


  Time     Wind        Temp  DP   Baro     Rain since   Rain past  Vis(m), Cloud(base in m), Weather
  local        km/h                         9am  last   hr   10m    
Mon 18:00   SW 28/ 35  34.6  9.8  1006.3    0.0   0.0   0.0   0.0   10000 
Mon 18:00   SW 28/ 35  34.6  9.8  1006.3    0.0   0.0  ----   0.0   10000 
Mon 18:30  SSW 28/ 39  33.6  9.6  1006.6    0.0   0.0   0.0   0.0   10000 
Mon 19:00  WSW 33/ 41  31.6 11.4  1007.2    0.0   0.0   0.0   0.0   10000 
Mon 19:30  WSW 28/ 37  29.5 12.9  1007.5    0.0   0.0   0.0   0.0   10000 
Mon 20:00  WSW 28/ 35  28.0 13.9  1008.0    0.0   0.0   0.0   0.0   10000 
Mon 20:30  WSW 24/ 28  26.4 13.9  1008.6    0.0   0.0   0.0   0.0   10000 
Mon 21:00  WSW 20/ 26  25.8 14.0  1009.0    0.0   0.0   0.0   0.0   10000|BR3450 
Mon 21:30  WSW 24/ 30  24.9 14.1  1009.3    0.0   0.0   0.0   0.0   10000|BR3450 
Mon 22:00  WSW 24/ 30  23.8 13.9  1009.7    0.0   0.0   0.0   0.0   10000|SC3750 
Mon 22:30  WSW 22/ 30  23.0 13.8  1010.0    0.0   0.0   0.0   0.0   10000 
Mon 23:00  WSW 15/ 20  22.1 13.7  1010.1    0.0   0.0   0.0   0.0   10000 
Mon 23:00  WSW 15/ 20  22.1 13.7  1010.1    0.0   0.0  ----   0.0   10000 

DARKAN AG STATION

Site: 010RKN
Alt: 255m
48km W of WAGIN


  Time     Wind        Temp  DP   Baro     Rain since   Rain past  Vis(m), Cloud(base in m), Weather
  local        km/h                         9am  last   hr   10m    
Mon 18:00    S  7/ 19  31.1  7.9  ------    0.0   0.0   0.0   0.0   ----- 
Mon 18:00    S  7/ 19  31.1  7.9  ------    0.0   0.0  ----   0.0   ----- 
Mon 18:30    S  6/ 15  29.9  8.3  ------    0.0   0.0   0.0   0.0   ----- 
Mon 19:00    S  6/ 13  28.0  8.9  ------    0.0   0.0   0.0   0.0   ----- 
Mon 19:00    S  6/ 13  28.0  8.9  ------    0.0   0.0  ----   0.0   ----- 
Mon 19:30  SSE 11/ 26  26.4 11.9  ------    0.0   0.0   0.0   0.0   ----- 
Mon 20:00  SSE 13/ 28  24.0 12.7  ------    0.0   0.0   0.0   0.0   ----- 
Mon 20:30    S  9/ 20  22.0 12.7  ------    0.0   0.0   0.0   0.0   ----- 
Mon 21:00  SSE 11/ 24  20.8 12.5  ------    0.0   0.0   0.0   0.0   ----- 
Mon 21:30    S  9/ 20  19.5 12.2  ------    0.0   0.0   0.0   0.0   ----- 
Mon 21:30    S  9/ 20  19.5 12.2  ------    0.0   0.0  ----   0.0   ----- 
Mon 22:00  SSE  7/ 19  18.2 11.7  ------    0.0   0.0   0.0   0.0   ----- 
Mon 22:30  SSE  9/ 17  17.5 11.7  ------    0.0   0.0   0.0   0.0   ----- 
Mon 23:00  SSE  6/ 13  16.4 11.2  ------    0.0   0.0   0.0   0.0   ----- 
Mon 23:00  SSE  6/ 13  16.4 11.2  ------    0.0   0.0   0.0   0.0   ----- 

DRAGON ROCKS AG STATION

Site: 010RGR
Alt: 390m
48km SSE of HAYDN


  Time     Wind        Temp  DP   Baro     Rain since   Rain past  Vis(m), Cloud(base in m), Weather
  local        km/h                         9am  last   hr   10m    
Mon 18:00   SE 15/ 22  22.8 17.5  ------    2.2   0.0   2.2   0.0   ----- 
Mon 18:00   SE 15/ 22  22.8 17.5  ------    2.2   0.0  ----   0.0   ----- 
Mon 18:30   SE 13/ 19  22.2 17.0  ------    2.2   0.0   0.0   0.0   ----- 
Mon 19:00  SSE 11/ 19  21.1 16.5  ------    2.2   0.0   0.0   0.0   ----- 
Mon 19:00  SSE 11/ 19  21.1 16.5  ------    2.2   0.0  ----   0.0   ----- 
Mon 19:30   SE  7/ 15  20.6 15.7  ------    2.2   0.0   0.0   0.0   ----- 
Mon 20:00   SE  9/ 13  19.6 15.8  ------    2.2   0.0   0.0   0.0   ----- 
Mon 20:30   SE  7/ 11  19.2 15.8  ------    2.2   0.0   0.0   0.0   ----- 
Mon 21:00   SE  7/ 13  18.6 15.8  ------    2.2   0.0   0.0   0.0   ----- 
Mon 21:30   SE  7/ 17  17.8 14.6  ------    2.2   0.0   0.0   0.0   ----- 
Mon 21:30   SE  7/ 17  17.8 14.6  ------    2.2   0.0  ----   0.0   ----- 
Mon 22:00   SE  7/ 13  16.7 14.0  ------    2.2   0.0   0.0   0.0   ----- 
Mon 22:30  SSE  7/ 19  15.8 13.7  ------    2.4   0.2   0.2   0.0   ----- 
Mon 23:00  SSE  9/ 20  15.4 13.5  ------    2.4   0.0   0.0   0.0   ----- 
Mon 23:00  SSE  9/ 20  15.4 13.5  ------    2.4   0.0   0.0   0.0   ----- 

DUMBLEYUNG AG STATION

Site: 010BLA
Alt: 270m
38km E of WAGIN


  Time     Wind        Temp  DP   Baro     Rain since   Rain past  Vis(m), Cloud(base in m), Weather
  local        km/h                         9am  last   hr   10m    
Mon 18:00  ESE 24/ 35  27.5 15.4  ------    2.2   0.0   0.0   0.0   ----- 
Mon 18:00  ESE 24/ 35  27.5 15.4  ------    2.2   0.0  ----   0.0   ----- 
Mon 18:30  ESE 17/ 26  26.3 15.9  ------    2.2   0.0   0.0   0.0   ----- 
Mon 19:00  ESE 19/ 32  24.8 14.9  ------    2.2   0.0   0.0   0.0   ----- 
Mon 19:00  ESE 19/ 32  24.8 14.9  ------    2.2   0.0  ----   0.0   ----- 
Mon 19:30  ESE 17/ 30  23.3 14.3  ------    2.2   0.0   0.0   0.0   ----- 
Mon 20:00  ESE 19/ 30  21.9 14.0  ------    2.2   0.0   0.0   0.0   ----- 
Mon 20:30  ESE 19/ 28  20.5 13.3  ------    2.2   0.0   0.0   0.0   ----- 
Mon 21:00  ESE 13/ 20  19.4 13.3  ------    2.2   0.0   0.0   0.0   ----- 
Mon 21:30  ESE 11/ 17  18.2 13.3  ------    2.2   0.0   0.0   0.0   ----- 
Mon 21:30  ESE 11/ 17  18.2 13.3  ------    2.2   0.0  ----   0.0   ----- 
Mon 22:00   SE 11/ 17  17.3 13.0  ------    2.2   0.0   0.0   0.0   ----- 
Mon 22:30   SE 13/ 20  16.4 12.7  ------    2.2   0.0   0.0   0.0   ----- 
Mon 23:00  SSE  9/ 17  15.7 12.6  ------    2.2   0.0   0.0   0.0   ----- 
Mon 23:00  SSE  9/ 17  15.7 12.6  ------    2.2   0.0   0.0   0.0   ----- 

EAST BEVERLEY AG STATION

Site: 010GEB
Alt: 225 m
23km ENE of BEVERLEY


  Time     Wind        Temp  DP   Baro     Rain since   Rain past  Vis(m), Cloud(base in m), Weather
  local        km/h                         9am  last   hr   10m    
Mon 18:00  SSW 17/ 26  33.8  8.3  ------    0.0   0.0   0.0   0.0   ----- 
Mon 18:00  SSW 17/ 26  33.8  8.3  ------    0.0   0.0  ----   0.0   ----- 
Mon 18:00  SSW 17/ 26  33.8  8.3  ------    0.0   0.0  ----   0.0   ----- 
Mon 18:00  SSW 17/ 26  33.8  8.3  ------    0.0   0.0  ----   0.0   ----- 
Mon 18:30   SW 19/ 28  32.8  8.2  ------    0.0   0.0   0.0   0.0   ----- 
Mon 18:30   SW 19/ 28  32.8  8.2  ------    0.0   0.0  ----   0.0   ----- 
Mon 19:00   SW 13/ 20  31.7  8.0  ------    0.0   0.0   0.0   0.0   ----- 
Mon 19:30  WSW 13/ 22  29.8 12.2  ------    0.0   0.0   0.0   0.0   ----- 
Mon 19:30  WSW 13/ 22  29.8 12.2  ------    0.0   0.0  ----   0.0   ----- 
Mon 20:00  WSW 15/ 24  28.3 13.5  ------    0.0   0.0   0.0   0.0   ----- 
Mon 20:30  WSW 15/ 24  26.9 13.4  ------    0.0   0.0   0.0   0.0   ----- 
Mon 21:00  WSW 15/ 22  25.9 13.4  ------    0.0   0.0   0.0   0.0   ----- 
Mon 21:30   SW 13/ 22  25.1 13.2  ------    0.0   0.0   0.0   0.0   ----- 
Mon 21:30   SW 13/ 22  25.1 13.2  ------    0.0   0.0  ----   0.0   ----- 
Mon 22:00  SSE 13/ 22  25.4 13.0  ------    0.0   0.0   0.0   0.0   ----- 
Mon 22:00  SSE 13/ 22  25.4 13.0  ------    0.0   0.0  ----   0.0   ----- 
Mon 22:30   SE 15/ 22  24.5 13.2  ------    0.0   0.0   0.0   0.0   ----- 
Mon 23:00   SE 11/ 17  23.5 12.7  ------    0.0   0.0   0.0   0.0   ----- 
Mon 23:00   SE 11/ 17  23.5 12.7  ------    0.0   0.0  ----   0.0   ----- 

EJANDING AG STATION

Site: 010NDG
Alt: 290m
42km ESE of WONGAN HILLS


  Time     Wind        Temp  DP   Baro     Rain since   Rain past  Vis(m), Cloud(base in m), Weather
  local        km/h                         9am  last   hr   10m    
Mon 18:00   SW 33/ 46  33.0 12.3  ------    0.0   0.0   0.0   0.0   ----- 
Mon 18:00   SW 33/ 46  33.0 12.3  ------    0.0   0.0  ----   0.0   ----- 
Mon 18:00   SW 33/ 46  33.0 12.3  ------    0.0   0.0  ----   0.0   ----- 
Mon 18:00   SW 33/ 46  33.0 12.3  ------    0.0   0.0  ----   0.0   ----- 
Mon 18:30   SW 32/ 41  30.7 12.2  ------    0.0   0.0   0.0   0.0   ----- 
Mon 18:30   SW 32/ 41  30.7 12.2  ------    0.0   0.0  ----   0.0   ----- 
Mon 19:00   SW 28/ 41  28.6 12.3  ------    0.0   0.0   0.0   0.0   ----- 
Mon 19:30   SW 26/ 37  26.4 12.4  ------    0.0   0.0   0.0   0.0   ----- 
Mon 19:30   SW 26/ 37  26.4 12.4  ------    0.0   0.0  ----   0.0   ----- 
Mon 20:00   SW 28/ 37  24.6 12.8  ------    0.0   0.0   0.0   0.0   ----- 
Mon 20:30   SW 22/ 33  23.4 12.8  ------    0.0   0.0   0.0   0.0   ----- 
Mon 20:30   SW 22/ 33  23.4 12.8  ------    0.0   0.0  ----   0.0   ----- 
Mon 21:00   SW 26/ 35  22.2 13.0  ------    0.0   0.0   0.0   0.0   ----- 
Mon 21:00   SW 26/ 35  22.2 13.0  ------    0.0   0.0  ----   0.0   ----- 
Mon 21:30   SW 22/ 33  21.2 13.2  ------    0.0   0.0   0.0   0.0   ----- 
Mon 21:30   SW 22/ 33  21.2 13.2  ------    0.0   0.0  ----   0.0   ----- 
Mon 22:00   SW 22/ 35  20.5 13.4  ------    0.0   0.0   0.0   0.0   ----- 
Mon 22:00   SW 22/ 35  20.5 13.4  ------    0.0   0.0  ----   0.0   ----- 
Mon 22:30   SW 20/ 30  19.3 13.7  ------    0.0   0.0   0.0   0.0   ----- 
Mon 23:00  WSW 13/ 20  18.6 13.8  ------    0.0   0.0   0.0   0.0   ----- 
Mon 23:00  WSW 13/ 20  18.6 13.8  ------    0.0   0.0  ----   0.0   ----- 

GAIRDNER AG STATION

Site: 010DNR
Alt: 80m
137km NE of ALBANY


  Time     Wind        Temp  DP   Baro     Rain since   Rain past  Vis(m), Cloud(base in m), Weather
  local        km/h                         9am  last   hr   10m    
Mon 18:00  ENE 13/ 26  18.1 15.2  ------    0.0   0.0   0.0   0.0   ----- 
Mon 18:00  ENE 13/ 26  18.1 15.2  ------    0.0   0.0  ----   0.0   ----- 
Mon 18:00  ENE 13/ 26  18.1 15.2  ------    0.0   0.0  ----   0.0   ----- 
Mon 18:00  ENE 13/ 26  18.1 15.2  ------    0.0   0.0  ----   0.0   ----- 
Mon 18:30    E 13/ 24  17.8 15.0  ------    0.0   0.0   0.0   0.0   ----- 
Mon 18:30    E 13/ 24  17.8 15.0  ------    0.0   0.0  ----   0.0   ----- 
Mon 19:00    E 15/ 24  17.6 14.8  ------    0.0   0.0   0.0   0.0   ----- 
Mon 19:30    E 13/ 24  17.5 14.7  ------    0.0   0.0   0.0   0.0   ----- 
Mon 19:30    E 13/ 24  17.5 14.7  ------    0.0   0.0  ----   0.0   ----- 
Mon 20:00    E 11/ 19  17.5 14.4  ------    0.0   0.0   0.0   0.0   ----- 
Mon 20:30    E 13/ 20  17.4 14.0  ------    0.0   0.0   0.0   0.0   ----- 
Mon 20:30    E 13/ 20  17.4 14.0  ------    0.0   0.0  ----   0.0   ----- 
Mon 21:00    E 15/ 26  17.2 13.8  ------    0.0   0.0   0.0   0.0   ----- 
Mon 21:00    E 15/ 26  17.2 13.8  ------    0.0   0.0  ----   0.0   ----- 
Mon 21:30    E 11/ 17  16.8 13.5  ------    0.0   0.0   0.0   0.0   ----- 
Mon 21:30    E 11/ 17  16.8 13.5  ------    0.0   0.0  ----   0.0   ----- 
Mon 22:00    E 13/ 20  17.0 13.3  ------    0.0   0.0   0.0   0.0   ----- 
Mon 22:00    E 13/ 20  17.0 13.3  ------    0.0   0.0  ----   0.0   ----- 
Mon 22:30    E  9/ 15  17.1 13.5  ------    0.0   0.0   0.0   0.0   ----- 
Mon 23:00    E 11/ 17  17.0 13.2  ------    0.0   0.0   0.0   0.0   ----- 
Mon 23:00    E 11/ 17  17.0 13.2  ------    0.0   0.0  ----   0.0   ----- 

HOLT ROCK AG STATION

Site: 010GHR
Alt: 361.0m
73km NE of NEWDEGATE


  Time     Wind        Temp  DP   Baro     Rain since   Rain past  Vis(m), Cloud(base in m), Weather
  local        km/h                         9am  last   hr   10m    
Mon 18:00   SE 30/ 45  23.9 16.2  ------    0.8   0.0   0.0   0.0   ----- 
Mon 18:00   SE 30/ 45  23.9 16.2  ------    0.8   0.0  ----   0.0   ----- 
Mon 18:30   SE 24/ 35  23.2 15.9  ------    0.8   0.0   0.0   0.0   ----- 
Mon 19:00   SE 20/ 30  22.4 15.8  ------    0.8   0.0   0.0   0.0   ----- 
Mon 19:00   SE 20/ 30  22.4 15.8  ------    0.8   0.0  ----   0.0   ----- 
Mon 19:30  SSE 20/ 32  21.4 15.2  ------    0.8   0.0   0.0   0.0   ----- 
Mon 20:00  SSE 19/ 30  20.0 14.8  ------    0.8   0.0   0.0   0.0   ----- 
Mon 20:30  SSE 15/ 24  18.8 14.7  ------    0.8   0.0   0.0   0.0   ----- 
Mon 21:00  SSE 13/ 20  18.3 14.6  ------    0.8   0.0   0.0   0.0   ----- 
Mon 21:30  SSE 15/ 26  17.9 14.1  ------    0.8   0.0   0.0   0.0   ----- 
Mon 21:30  SSE 15/ 26  17.9 14.1  ------    0.8   0.0  ----   0.0   ----- 
Mon 22:00  SSE 13/ 24  17.5 13.5  ------    0.8   0.0   0.0   0.0   ----- 
Mon 22:30  SSE 19/ 30  17.0 13.1  ------    0.8   0.0   0.0   0.0   ----- 
Mon 23:00  SSE 20/ 30  16.5 13.8  ------    0.8   0.0   0.0   0.0   ----- 
Mon 23:00  SSE 20/ 30  16.5 13.8  ------    0.8   0.0   0.0   0.0   ----- 

HYDEN AG STATION

Site: 010YDN
Alt: 305m
2km NW of HAYDN


  Time     Wind        Temp  DP   Baro     Rain since   Rain past  Vis(m), Cloud(base in m), Weather
  local        km/h                         9am  last   hr   10m    
Mon 18:00   SE  4/ 13  29.5 16.9  ------    1.4   0.0   0.0   0.0   ----- 
Mon 18:00   SE  4/ 13  29.5 16.9  ------    1.4   0.0  ----   0.0   ----- 
Mon 18:30  SSE 20/ 35  24.8 14.8  ------    1.4   0.0   0.0   0.0   ----- 
Mon 19:00   SE 13/ 22  24.0 14.9  ------    1.4   0.0   0.0   0.0   ----- 
Mon 19:30   SE 15/ 22  23.1 15.0  ------    1.4   0.0   0.0   0.0   ----- 
Mon 20:00   SE 19/ 32  21.9 14.4  ------    1.4   0.0   0.0   0.0   ----- 
Mon 20:30  ESE 17/ 28  21.0 14.3  ------    1.4   0.0   0.0   0.0   ----- 
Mon 20:30  ESE 17/ 28  21.0 14.3  ------    1.4   0.0  ----   0.0   ----- 
Mon 21:00  ESE 11/ 19  20.5 14.4  ------    1.4   0.0   0.0   0.0   ----- 
Mon 21:30  ESE 11/ 19  19.8 14.6  ------    1.4   0.0   0.0   0.0   ----- 
Mon 22:00   SE  7/ 13  19.4 14.8  ------    1.4   0.0   0.0   0.0   ----- 
Mon 22:30   SE 13/ 20  19.0 14.6  ------    1.4   0.0   0.0   0.0   ----- 
Mon 23:00   SE  9/ 17  18.4 14.4  ------    1.4   0.0   0.0   0.0   ----- 
Mon 23:00   SE  9/ 17  18.4 14.4  ------    1.4   0.0  ----   0.0   ----- 

JACUP

Site: 010905
Alt: 305.0m
93km WSW of RAVENSTHORPE


  Time     Wind        Temp  DP   Baro     Rain since   Rain past  Vis(m), Cloud(base in m), Weather
  local        km/h                         9am  last   hr   10m    
Mon 18:00   SE 20/ 32  19.0 12.7  1010.3    0.0   0.0   0.0   0.0   ----- 
Mon 18:00   SE 20/ 32  19.0 12.7  1010.3    0.0   0.0  ----   0.0   ----- 
Mon 18:30  SSE 20/ 30  17.9 12.6  1010.8    0.0   0.0   0.0   0.0   ----- 
Mon 19:00  SSE 17/ 28  17.1 12.8  1011.2    0.0   0.0   0.0   0.0   ----- 
Mon 19:30   SE 20/ 32  17.1 13.0  1012.0    0.0   0.0   0.0   0.0   ----- 
Mon 20:00    S 22/ 32  16.4 12.9  1011.9    0.0   0.0   0.0   0.0   ----- 
Mon 20:30  SSE 20/ 30  16.1 12.8  1011.8    0.0   0.0   0.0   0.0   ----- 
Mon 21:00    S 20/ 32  15.8 12.7  1011.7    0.0   0.0   0.0   0.0   ----- 
Mon 21:30    S 20/ 33  15.6 12.5  1011.7    0.0   0.0   0.0   0.0   ----- 
Mon 22:00    S 22/ 32  15.4 12.3  1011.8    0.0   0.0   0.0   0.0   ----- 
Mon 22:30    S 17/ 26  15.1 11.9  1011.9    0.0   0.0   0.0   0.0   ----- 
Mon 23:00  SSE 19/ 28  15.3 11.9  1012.0    0.0   0.0   0.0   0.0   ----- 
Mon 23:00  SSE 19/ 28  15.3 11.9  1012.0    0.0   0.0  ----   0.0   ----- 

JERRAMUNGUP AG STATION

Site: 010GJE
Alt: m
km of


  Time     Wind        Temp  DP   Baro     Rain since   Rain past  Vis(m), Cloud(base in m), Weather
  local        km/h                         9am  last   hr   10m    
Mon 18:00   SE 22/ 33  18.7 12.3  ------    0.0   0.0   0.0   0.0   ----- 
Mon 18:00   SE 22/ 33  18.7 12.3  ------    0.0   0.0  ----   0.0   ----- 
Mon 18:30  SSE 20/ 28  17.9 12.2  ------    0.0   0.0   0.0   0.0   ----- 
Mon 19:00  SSE 20/ 30  17.3 12.4  ------    0.0   0.0   0.0   0.0   ----- 
Mon 19:00  SSE 20/ 30  17.3 12.4  ------    0.0   0.0  ----   0.0   ----- 
Mon 19:30  SSE 19/ 30  16.8 12.8  ------    0.0   0.0   0.0   0.0   ----- 
Mon 20:00   SE 22/ 32  16.5 12.8  ------    0.0   0.0   0.0   0.0   ----- 
Mon 20:30  SSE 20/ 33  16.4 13.0  ------    0.0   0.0   0.0   0.0   ----- 
Mon 21:00    S 24/ 37  15.9 12.6  ------    0.0   0.0   0.0   0.0   ----- 
Mon 21:30    S 22/ 33  15.8 12.6  ------    0.0   0.0   0.0   0.0   ----- 
Mon 21:30    S 22/ 33  15.8 12.6  ------    0.0   0.0  ----   0.0   ----- 
Mon 22:00    S 22/ 33  15.5 12.2  ------    0.0   0.0   0.0   0.0   ----- 
Mon 22:30    S 20/ 30  15.3 12.0  ------    0.0   0.0   0.0   0.0   ----- 
Mon 23:00  SSE 17/ 26  15.2 11.8  ------    0.0   0.0   0.0   0.0   ----- 
Mon 23:00  SSE 17/ 26  15.2 11.8  ------    0.0   0.0   0.0   0.0   ----- 

KALANNIE AG STATION

Site: 010GKL
Alt: 305.0m
73km NE of WONGAN HILLS


  Time     Wind        Temp  DP   Baro     Rain since   Rain past  Vis(m), Cloud(base in m), Weather
  local        km/h                         9am  last   hr   10m    
Mon 18:00  WSW 24/ 41  33.1 11.3  ------    0.0   0.0   0.0   0.0   ----- 
Mon 18:00  WSW 24/ 41  33.1 11.3  ------    0.0   0.0  ----   0.0   ----- 
Mon 18:00  WSW 24/ 41  33.1 11.3  ------    0.0   0.0  ----   0.0   ----- 
Mon 18:00  WSW 24/ 41  33.1 11.3  ------    0.0   0.0  ----   0.0   ----- 
Mon 18:30   SW 28/ 41  31.0 11.9  ------    0.0   0.0   0.0   0.0   ----- 
Mon 18:30   SW 28/ 41  31.0 11.9  ------    0.0   0.0  ----   0.0   ----- 
Mon 19:00   SW 20/ 37  28.7 11.8  ------    0.0   0.0   0.0   0.0   ----- 
Mon 19:00   SW 20/ 37  28.7 11.8  ------    0.0   0.0  ----   0.0   ----- 
Mon 19:30  WSW 22/ 35  26.8 12.0  ------    0.0   0.0   0.0   0.0   ----- 
Mon 20:00  WSW 24/ 39  25.0 12.1  ------    0.0   0.0   0.0   0.0   ----- 
Mon 20:30  WSW 24/ 39  23.5 12.7  ------    0.0   0.0   0.0   0.0   ----- 
Mon 21:00  WSW 22/ 35  22.4 13.0  ------    0.0   0.0   0.0   0.0   ----- 
Mon 21:30   SW 22/ 35  21.5 12.9  ------    0.0   0.0   0.0   0.0   ----- 
Mon 21:30   SW 22/ 35  21.5 12.9  ------    0.0   0.0  ----   0.0   ----- 
Mon 22:00   SW 20/ 39  20.5 13.3  ------    0.0   0.0   0.0   0.0   ----- 
Mon 22:30  WSW 20/ 32  19.5 13.6  ------    0.0   0.0   0.0   0.0   ----- 
Mon 23:00   SW 19/ 30  18.9 13.6  ------    0.0   0.0   0.0   0.0   ----- 
Mon 23:00   SW 19/ 30  18.9 13.6  ------    0.0   0.0   0.0   0.0   ----- 

KATANNING

Site: 010916
Alt: 320.0m
5km E of KATANNING


  Time     Wind        Temp  DP   Baro     Rain since   Rain past  Vis(m), Cloud(base in m), Weather
  local        km/h                         9am  last   hr   10m    
Mon 18:00    S 24/ 35  27.6  9.9  1009.2    0.0   0.0   0.0   0.0   ----- 
Mon 18:00    S 24/ 35  27.6  9.9  1009.2    0.0   0.0  ----   0.0   ----- 
Mon 18:30  SSE 22/ 35  25.5 10.1  1009.9    0.0   0.0   0.0   0.0   ----- 
Mon 19:00  SSE 24/ 32  23.6 10.3  1010.3    0.0   0.0   0.0   0.0   ----- 
Mon 19:30    S 24/ 33  21.6 11.0  1010.9    0.0   0.0   0.0   0.0   ----- 
Mon 20:00    S 22/ 33  19.9 11.1  1011.3    0.0   0.0   0.0   0.0   ----- 
Mon 20:30    S 20/ 30  18.3 10.9  1011.8    0.0   0.0   0.0   0.0   ----- 
Mon 21:00    S 19/ 26  17.1 10.7  1012.1    0.0   0.0   0.0   0.0   ----- 
Mon 21:30    S 17/ 26  16.1 10.2  1012.4    0.0   0.0   0.0   0.0   ----- 
Mon 22:00    S 13/ 24  15.2 10.0  1012.6    0.0   0.0   0.0   0.0   ----- 
Mon 22:30    S 11/ 17  14.6  9.8  1012.7    0.0   0.0   0.0   0.0   ----- 
Mon 23:00    S 11/ 15  14.1  9.7  1012.7    0.0   0.0   0.0   0.0   ----- 
Mon 23:00    S 11/ 15  14.1  9.7  1012.7    0.0   0.0  ----   0.0   ----- 

KATANNING AG STATION

Site: 010GKA
Alt: m
km of


  Time     Wind        Temp  DP   Baro     Rain since   Rain past  Vis(m), Cloud(base in m), Weather
  local        km/h                         9am  last   hr   10m    
Mon 18:00    S 19/ 30  27.9 11.5  ------    0.0   0.0   0.0   0.0   ----- 
Mon 18:00    S 19/ 30  27.9 11.5  ------    0.0   0.0  ----   0.0   ----- 
Mon 18:30    S 20/ 35  25.7 11.7  ------    0.0   0.0   0.0   0.0   ----- 
Mon 19:00  SSE 17/ 30  24.0 11.6  ------    0.0   0.0   0.0   0.0   ----- 
Mon 19:00  SSE 17/ 30  24.0 11.6  ------    0.0   0.0  ----   0.0   ----- 
Mon 19:30    S 17/ 28  22.0 12.0  ------    0.0   0.0   0.0   0.0   ----- 
Mon 20:00    S 15/ 32  20.2 12.3  ------    0.0   0.0   0.0   0.0   ----- 
Mon 20:30    S 13/ 26  18.6 12.4  ------    0.0   0.0   0.0   0.0   ----- 
Mon 21:00    S 13/ 22  17.5 12.6  ------    0.0   0.0   0.0   0.0   ----- 
Mon 21:30    S  9/ 20  16.4 12.5  ------    0.0   0.0   0.0   0.0   ----- 
Mon 21:30    S  9/ 20  16.4 12.5  ------    0.0   0.0  ----   0.0   ----- 
Mon 22:00    S  9/ 19  15.5 12.7  ------    0.0   0.0   0.0   0.0   ----- 
Mon 22:30    S  6/ 11  14.8 13.1  ------    0.0   0.0   0.0   0.0   ----- 
Mon 23:00    S  7/ 15  14.3 13.5  ------    0.0   0.0   0.0   0.0   ----- 
Mon 23:00    S  7/ 15  14.3 13.5  ------    0.0   0.0   0.0   0.0   ----- 

KELLERBERRIN AG STATION

Site: 010LRB
Alt: 250m
2km N of KELLERBERRIN


  Time     Wind        Temp  DP   Baro     Rain since   Rain past  Vis(m), Cloud(base in m), Weather
  local        km/h                         9am  last   hr   10m    
Mon 18:00  SSW 13/ 26  34.3  8.2  ------    0.0   0.0   0.0   0.0   ----- 
Mon 18:30  SSW 11/ 22  33.8  7.9  ------    0.0   0.0   0.0   0.0   ----- 
Mon 19:00  SSW 13/ 22  32.8  8.3  ------    0.0   0.0   0.0   0.0   ----- 
Mon 19:00  SSW 13/ 22  32.8  8.3  ------    0.0   0.0  ----   0.0   ----- 
Mon 19:30  SSW 11/ 19  31.9  8.5  ------    0.0   0.0   0.0   0.0   ----- 
Mon 20:00    S 11/ 22  30.9  8.9  ------    0.0   0.0   0.0   0.0   ----- 
Mon 20:30    S  9/ 22  30.3  8.8  ------    0.0   0.0   0.0   0.0   ----- 
Mon 21:00   SE 11/ 22  27.9 11.9  ------    0.0   0.0   0.0   0.0   ----- 
Mon 21:30    S  4/ 15  26.5 11.7  ------    0.0   0.0   0.0   0.0   ----- 
Mon 21:30    S  4/ 15  26.5 11.7  ------    0.0   0.0  ----   0.0   ----- 
Mon 22:00  SSE  6/ 15  25.4 12.4  ------    0.0   0.0   0.0   0.0   ----- 
Mon 22:00  SSE  6/ 15  25.4 12.4  ------    0.0   0.0  ----   0.0   ----- 
Mon 22:30    S  4/ 15  24.5 12.9  ------    0.0   0.0   0.0   0.0   ----- 
Mon 23:00  SSE  9/ 17  24.1 12.8  ------    0.0   0.0   0.0   0.0   ----- 
Mon 23:00  SSE  9/ 17  24.1 12.8  ------    0.0   0.0  ----   0.0   ----- 

KONDININ AG STATION

Site: 010DNA
Alt: 270m
39km ESE of CORRIGIN


  Time     Wind        Temp  DP   Baro     Rain since   Rain past  Vis(m), Cloud(base in m), Weather
  local        km/h                         9am  last   hr   10m    
Mon 18:00    S 22/ 33  33.7  9.8  ------    0.0   0.0   0.0   0.0   ----- 
Mon 18:00    S 22/ 33  33.7  9.8  ------    0.0   0.0  ----   0.0   ----- 
Mon 18:30    S 26/ 43  31.4 12.4  ------    0.0   0.0   0.0   0.0   ----- 
Mon 19:00   SE 24/ 39  28.8 13.1  ------    0.0   0.0   0.0   0.0   ----- 
Mon 19:30   SE 20/ 30  27.5 13.2  ------    0.0   0.0   0.0   0.0   ----- 
Mon 20:00   SE 19/ 30  26.7 13.2  ------    0.0   0.0   0.0   0.0   ----- 
Mon 20:30   SE 15/ 26  25.6 13.2  ------    0.0   0.0   0.0   0.0   ----- 
Mon 21:00   SE 17/ 32  24.5 13.3  ------    0.0   0.0   0.0   0.0   ----- 
Mon 21:30   SE 15/ 26  23.3 12.8  ------    0.0   0.0   0.0   0.0   ----- 
Mon 22:00   SE 19/ 32  22.2 11.0  ------    0.0   0.0   0.0   0.0   ----- 
Mon 22:30   SE 15/ 24  21.1 11.5  ------    0.0   0.0   0.0   0.0   ----- 
Mon 23:00  SSE 13/ 22  20.2 12.0  ------    0.0   0.0   0.0   0.0   ----- 
Mon 23:00  SSE 13/ 22  20.2 12.0  ------    0.0   0.0  ----   0.0   ----- 

KOORDA AG STATION

Site: 010RDA
Alt: 310m
74km E of WONGAN HILLS


  Time     Wind        Temp  DP   Baro     Rain since   Rain past  Vis(m), Cloud(base in m), Weather
  local        km/h                         9am  last   hr   10m    
Mon 18:00  SSW 17/ 28  34.7  9.2  ------    0.0   0.0   0.0   0.0   ----- 
Mon 18:00  SSW 17/ 28  34.7  9.2  ------    0.0   0.0  ----   0.0   ----- 
Mon 18:00  SSW 17/ 28  34.7  9.2  ------    0.0   0.0  ----   0.0   ----- 
Mon 18:00  SSW 17/ 28  34.7  9.2  ------    0.0   0.0  ----   0.0   ----- 
Mon 18:30  SSW 13/ 22  33.9  9.3  ------    0.0   0.0   0.0   0.0   ----- 
Mon 18:30  SSW 13/ 22  33.9  9.3  ------    0.0   0.0  ----   0.0   ----- 
Mon 19:00   SW 22/ 41  31.4 12.5  ------    0.0   0.0   0.0   0.0   ----- 
Mon 19:30   SW 22/ 35  29.4 12.0  ------    0.0   0.0   0.0   0.0   ----- 
Mon 19:30   SW 22/ 35  29.4 12.0  ------    0.0   0.0  ----   0.0   ----- 
Mon 20:00   SW 17/ 32  27.8 12.2  ------    0.0   0.0   0.0   0.0   ----- 
Mon 20:30   SW 17/ 30  26.1 12.2  ------    0.0   0.0   0.0   0.0   ----- 
Mon 20:30   SW 17/ 30  26.1 12.2  ------    0.0   0.0  ----   0.0   ----- 
Mon 21:00  WSW 17/ 32  24.6 12.6  ------    0.0   0.0   0.0   0.0   ----- 
Mon 21:00  WSW 17/ 32  24.6 12.6  ------    0.0   0.0  ----   0.0   ----- 
Mon 21:30   SW 15/ 26  23.7 12.8  ------    0.0   0.0   0.0   0.0   ----- 
Mon 21:30   SW 15/ 26  23.7 12.8  ------    0.0   0.0  ----   0.0   ----- 
Mon 22:00   SW 17/ 28  23.0 12.9  ------    0.0   0.0   0.0   0.0   ----- 
Mon 22:00   SW 17/ 28  23.0 12.9  ------    0.0   0.0  ----   0.0   ----- 
Mon 22:30   SW 15/ 24  22.3 13.2  ------    0.0   0.0   0.0   0.0   ----- 
Mon 23:00  SSW 15/ 24  21.7 13.3  ------    0.0   0.0   0.0   0.0   ----- 
Mon 23:00  SSW 15/ 24  21.7 13.3  ------    0.0   0.0  ----   0.0   ----- 

LAKE GRACE

Site: 010911
Alt: 286.0m
0.0km E of LAKE GRACE


  Time     Wind        Temp  DP   Baro     Rain since   Rain past  Vis(m), Cloud(base in m), Weather
  local        km/h                         9am  last   hr   10m    
Mon 18:00   SE 32/ 48  27.3 13.6  1008.5    0.0   0.0   0.0   0.0   ----- 
Mon 18:00   SE 32/ 48  27.3 13.6  1008.5    0.0   0.0  ----   0.0   ----- 

Mon 18:30   SE 28/ 41  26.0 13.8  1008.7    0.0   0.0   0.0   0.0   ----- 
Mon 19:00   SE 22/ 33  24.9 13.8  1009.1    0.0   0.0   0.0   0.0   ----- 
Mon 19:30  SSE 20/ 28  23.5 13.4  1009.7    0.0   0.0   0.0   0.0   ----- 
Mon 20:00  SSE 20/ 35  22.1 12.9  1010.1    0.0   0.0   0.0   0.0   ----- 
Mon 20:30  SSE 22/ 33  19.9 12.4  1010.4    0.0   0.0   0.0   0.0   ----- 
Mon 21:00  SSE 20/ 33  18.8 12.5  1010.9    0.0   0.0   0.0   0.0   ----- 
Mon 21:30  SSE 20/ 30  17.7 12.6  1011.1    0.0   0.0   0.0   0.0   ----- 
Mon 22:00  SSE 20/ 30  17.1 12.8  1011.2    0.0   0.0   0.0   0.0   ----- 
Mon 22:30  SSE 19/ 30  16.6 12.8  1011.3    0.0   0.0   0.0   0.0   ----- 
Mon 23:00  SSE 17/ 28  16.3 12.5  1011.4    0.0   0.0   0.0   0.0   ----- 
Mon 23:00  SSE 17/ 28  16.3 12.5  1011.4    0.0   0.0  ----   0.0   ----- 

LAKE KING AG STATION

Site: 010GLK
Alt: 334.0m
12km ENE of LAKE KING


  Time     Wind        Temp  DP   Baro     Rain since   Rain past  Vis(m), Cloud(base in m), Weather
  local        km/h                         9am  last   hr   10m    
Mon 18:00   SE 17/ 26  21.6 15.4  ------    2.4   0.0   1.6   0.0   ----- 
Mon 18:00   SE 17/ 26  21.6 15.4  ------    2.4   0.0  ----   0.0   ----- 
Mon 18:30    S 20/ 35  21.2 15.1  ------    2.4   0.0   0.0   0.0   ----- 
Mon 19:00    S 17/ 32  19.2 14.6  ------    2.4   0.0   0.0   0.0   ----- 
Mon 19:30  SSE 15/ 26  18.3 13.9  ------    2.4   0.0   0.0   0.0   ----- 
Mon 20:00  SSE 15/ 24  17.7 13.8  ------    2.4   0.0   0.0   0.0   ----- 
Mon 20:30  SSE  9/ 15  17.0 13.6  ------    2.4   0.0   0.0   0.0   ----- 
Mon 21:00  SSE  6/ 13  16.6 13.6  ------    2.4   0.0   0.0   0.0   ----- 
Mon 21:30    S  9/ 15  16.2 13.7  ------    2.4   0.0   0.0   0.0   ----- 
Mon 22:00    S 15/ 28  16.0 14.4  ------    2.4   0.0   0.0   0.0   ----- 
Mon 22:30  SSE 15/ 26  15.9 14.3  ------    2.4   0.0   0.0   0.0   ----- 
Mon 23:00  SSE 15/ 28  15.8 14.2  ------    2.4   0.0   0.0   0.0   ----- 
Mon 23:00  SSE 15/ 28  15.8 14.2  ------    2.4   0.0  ----   0.0   ----- 

MAGENTA AG STATION

Site: 010AGD
Alt: 280m
67km ESE of LAKE GRACE


  Time     Wind        Temp  DP   Baro     Rain since   Rain past  Vis(m), Cloud(base in m), Weather
  local        km/h                         9am  last   hr   10m    
Mon 18:00   SE 19/ 32  24.2 14.4  ------    0.0   0.0   0.0   0.0   ----- 
Mon 18:00   SE 19/ 32  24.2 14.4  ------    0.0   0.0  ----   0.0   ----- 
Mon 18:30  SSE 20/ 30  22.9 14.2  ------    0.0   0.0   0.0   0.0   ----- 
Mon 19:00  SSE 20/ 33  20.8 14.7  ------    0.0   0.0   0.0   0.0   ----- 
Mon 19:00  SSE 20/ 33  20.8 14.7  ------    0.0   0.0  ----   0.0   ----- 
Mon 19:30  SSE 17/ 26  19.5 14.8  ------    0.0   0.0   0.0   0.0   ----- 
Mon 20:00  SSE 13/ 26  18.4 14.6  ------    0.0   0.0   0.0   0.0   ----- 
Mon 20:30  SSE 15/ 26  17.1 14.3  ------    0.0   0.0   0.0   0.0   ----- 
Mon 21:00  SSE 15/ 30  16.3 14.3  ------    0.0   0.0   0.0   0.0   ----- 
Mon 21:30  SSE 17/ 26  15.8 14.1  ------    0.0   0.0   0.0   0.0   ----- 
Mon 21:30  SSE 17/ 26  15.8 14.1  ------    0.0   0.0  ----   0.0   ----- 
Mon 22:00  SSE 17/ 24  15.7 14.3  ------    0.0   0.0   0.0   0.0   ----- 
Mon 22:30  SSE 17/ 24  15.9 14.2  ------    0.0   0.0   0.0   0.0   ----- 
Mon 23:00   SE 13/ 20  16.0 14.1  ------    0.0   0.0   0.0   0.0   ----- 
Mon 23:00   SE 13/ 20  16.0 14.1  ------    0.0   0.0   0.0   0.0   ----- 

MECKERING NORTH AG STATION

Site: 010GMN
Alt: 308.0m
28km NE of MECKERING


  Time     Wind        Temp  DP   Baro     Rain since   Rain past  Vis(m), Cloud(base in m), Weather
  local        km/h                         9am  last   hr   10m    
Mon 18:00  WSW 22/ 35  32.0 13.3  ------    0.0   0.0   0.0   0.0   ----- 
Mon 18:00  WSW 22/ 35  32.0 13.3  ------    0.0   0.0  ----   0.0   ----- 
Mon 18:30  WSW 26/ 39  30.2 12.5  ------    0.0   0.0   0.0   0.0   ----- 
Mon 19:00  WSW 22/ 39  28.1 13.0  ------    0.0   0.0   0.0   0.0   ----- 
Mon 19:00  WSW 22/ 39  28.1 13.0  ------    0.0   0.0  ----   0.0   ----- 
Mon 19:30  WSW 19/ 33  25.7 13.2  ------    0.0   0.0   0.0   0.0   ----- 
Mon 20:00    W 17/ 26  24.4 13.2  ------    0.0   0.0   0.0   0.0   ----- 
Mon 20:30  WSW 17/ 33  23.5 13.3  ------    0.0   0.0   0.0   0.0   ----- 
Mon 21:00   SW 20/ 32  22.4 13.4  ------    0.0   0.0   0.0   0.0   ----- 
Mon 21:30  WSW 20/ 30  21.4 13.7  ------    0.0   0.0   0.0   0.0   ----- 
Mon 21:30  WSW 20/ 30  21.4 13.7  ------    0.0   0.0  ----   0.0   ----- 
Mon 22:00  WSW 20/ 35  20.5 13.6  ------    0.0   0.0   0.0   0.0   ----- 
Mon 22:30  WSW 19/ 32  19.6 13.7  ------    0.0   0.0   0.0   0.0   ----- 
Mon 23:00  WSW 17/ 26  18.8 13.7  ------    0.0   0.0   0.0   0.0   ----- 
Mon 23:00  WSW 17/ 26  18.8 13.7  ------    0.0   0.0   0.0   0.0   ----- 

MUKINBUDIN AG STATION

Site: 010KBA
Alt: 310m
39km ESE of BENCUBBIN


  Time     Wind        Temp  DP   Baro     Rain since   Rain past  Vis(m), Cloud(base in m), Weather
  local        km/h                         9am  last   hr   10m    
Mon 18:00  SSW 19/ 32  35.9 10.4  ------    0.0   0.0   0.0   0.0   ----- 
Mon 18:00  SSW 19/ 32  35.9 10.4  ------    0.0   0.0  ----   0.0   ----- 
Mon 18:30  SSW 20/ 30  34.7  9.6  ------    0.0   0.0   0.0   0.0   ----- 
Mon 19:00    S 17/ 30  33.7  9.6  ------    0.0   0.0   0.0   0.0   ----- 
Mon 19:00    S 17/ 30  33.7  9.6  ------    0.0   0.0  ----   0.0   ----- 
Mon 19:30  SSW 13/ 22  32.6  9.2  ------    0.0   0.0   0.0   0.0   ----- 
Mon 20:00  SSW 13/ 26  31.9  8.9  ------    0.0   0.0   0.0   0.0   ----- 
Mon 20:30  SSW 11/ 17  31.1  9.0  ------    0.0   0.0   0.0   0.0   ----- 
Mon 20:30  SSW 11/ 17  31.1  9.0  ------    0.0   0.0  ----   0.0   ----- 
Mon 21:00  SSW  9/ 17  30.6  9.1  ------    0.0   0.0   0.0   0.0   ----- 
Mon 21:30    S 17/ 30  29.7 12.0  ------    0.0   0.0   0.0   0.0   ----- 
Mon 22:00  SSE 17/ 28  27.5 13.2  ------    0.0   0.0   0.0   0.0   ----- 
Mon 22:30  SSE 17/ 30  26.0 13.9  ------    0.0   0.0   0.0   0.0   ----- 
Mon 23:00  ESE 15/ 30  26.1 12.3  ------    0.0   0.0   0.0   0.0   ----- 
Mon 23:00  ESE 15/ 30  26.1 12.3  ------    0.0   0.0  ----   0.0   ----- 

NAREMBEEN AG STATION

Site: 010RBA
Alt: 270m
5km SSE of NAREMBEEN


  Time     Wind        Temp  DP   Baro     Rain since   Rain past  Vis(m), Cloud(base in m), Weather
  local        km/h                         9am  last   hr   10m    
Mon 18:00  SSW 11/ 24  34.8  9.2  ------    0.0   0.0   0.0   0.0   ----- 
Mon 18:00  SSW 11/ 24  34.8  9.2  ------    0.0   0.0  ----   0.0   ----- 
Mon 18:30  SSW  9/ 19  33.3  9.4  ------    0.0   0.0   0.0   0.0   ----- 
Mon 18:55  SSE 30/ 50  28.9 12.7  ------    0.0   0.0  ----   0.0   ----- 
Mon 19:30  SSE 22/ 37  26.6 13.7  ------    0.0   0.0   0.0   0.0   ----- 
Mon 20:00   SE 22/ 35  25.6 14.2  ------    0.0   0.0  ----   0.0   ----- 
Mon 20:30   SE 17/ 28  24.9 14.5  ------    0.0   0.0   0.0   0.0   ----- 
Mon 21:00   SE 19/ 32  23.9 13.9  ------    0.0   0.0   0.0   0.0   ----- 
Mon 21:30   SE 15/ 32  23.2 13.2  ------    0.0   0.0   0.0   0.0   ----- 
Mon 21:30   SE 15/ 32  23.2 13.2  ------    0.0   0.0  ----   0.0   ----- 
Mon 22:00   SE 17/ 32  22.3 13.5  ------    0.0   0.0   0.0   0.0   ----- 
Mon 22:30  SSE 15/ 26  21.4 14.6  ------    0.0   0.0   0.0   0.0   ----- 
Mon 23:00  SSE 13/ 22  21.0 14.7  ------    0.0   0.0   0.0   0.0   ----- 
Mon 23:00  SSE 13/ 22  21.0 14.7  ------    0.0   0.0   0.0   0.0   ----- 

NARROGIN AG STATION

Site: 010GNA
Alt: 340m
10km W of NARROGIN


  Time     Wind        Temp  DP   Baro     Rain since   Rain past  Vis(m), Cloud(base in m), Weather
  local        km/h                         9am  last   hr   10m    
Mon 18:00    S 13/ 22  31.7  7.2  ------    0.0   0.0   0.0   0.0   ----- 
Mon 18:00    S 13/ 22  31.7  7.2  ------    0.0   0.0  ----   0.0   ----- 
Mon 18:00    S 19/ 28  32.4 10.0  ------    0.0   0.0   0.0   0.0   ----- 
Mon 18:00    S 13/ 22  31.7  7.2  ------    0.0   0.0   0.0   0.0   ----- 
Mon 18:00    S  9/ 19  31.8  8.6  ------    0.4   0.0   0.0   0.0   ----- 
Mon 18:00    S 19/ 28  32.4 10.0  ------    0.0   0.0   0.0   0.0   ----- 
Mon 18:00    S 13/ 22  31.7  7.2  ------    0.0   0.0   0.0   0.0   ----- 
Mon 18:00    S  9/ 19  31.8  8.6  ------    0.4   0.0   0.0   0.0   ----- 
Mon 18:30  SSW 13/ 22  30.8  7.0  ------    0.0   0.0   0.0   0.0   ----- 
Mon 18:30    S 13/ 24  31.4  9.1  ------    0.0   0.0   0.0   0.0   ----- 
Mon 18:30  SSW 13/ 22  30.8  7.0  ------    0.0   0.0   0.0   0.0   ----- 
Mon 18:30    S 11/ 17  30.3  9.2  ------    0.4   0.0   0.0   0.0   ----- 
Mon 19:00    S 11/ 17  29.2  7.4  ------    0.0   0.0   0.0   0.0   ----- 
Mon 19:00    S 11/ 19  30.0  9.1  ------    0.0   0.0   0.0   0.0   ----- 
Mon 19:00    S  9/ 17  28.9  9.0  ------    0.4   0.0   0.0   0.0   ----- 
Mon 19:00    S 11/ 19  30.0  9.1  ------    0.0   0.0   0.0   0.0   ----- 
Mon 19:00    S  9/ 17  28.9  9.0  ------    0.4   0.0   0.0   0.0   ----- 
Mon 19:30    S 11/ 17  27.9  8.3  ------    0.0   0.0   0.0   0.0   ----- 
Mon 19:30    S  7/ 15  28.9  8.7  ------    0.0   0.0   0.0   0.0   ----- 
Mon 19:30    S 11/ 17  27.9  8.3  ------    0.0   0.0   0.0   0.0   ----- 
Mon 19:30  SSE 22/ 35  25.7 12.1  ------    0.4   0.0   0.0   0.0   ----- 
Mon 20:00    S  9/ 15  26.8  8.5  ------    0.0   0.0   0.0   0.0   ----- 
Mon 20:00  ESE 15/ 28  27.1 12.2  ------    0.0   0.0   0.0   0.0   ----- 
Mon 20:00  SSE 17/ 30  23.9 11.5  ------    0.4   0.0   0.0   0.0   ----- 
Mon 20:30   SE 20/ 35  25.4 12.2  ------    0.0   0.0   0.0   0.0   ----- 
Mon 20:30  ESE 17/ 30  25.9 12.9  ------    0.0   0.0   0.0   0.0   ----- 
Mon 20:30   SE 20/ 35  25.4 12.2  ------    0.0   0.0   0.0   0.0   ----- 
Mon 20:30  SSE 17/ 28  22.3 12.2  ------    0.4   0.0   0.0   0.0   ----- 
Mon 21:00  SSE 19/ 28  23.9 11.9  ------    0.0   0.0   0.0   0.0   ----- 
Mon 21:00  ESE 17/ 26  24.4 13.1  ------    0.0   0.0   0.0   0.0   ----- 
Mon 21:00  SSE 19/ 28  23.9 11.9  ------    0.0   0.0   0.0   0.0   ----- 
Mon 21:00  SSE 20/ 35  20.6 12.1  ------    0.4   0.0   0.0   0.0   ----- 
Mon 21:30   SE 15/ 30  23.5 13.0  ------    0.0   0.0   0.0   0.0   ----- 
Mon 21:30  SSE 20/ 32  22.3 12.1  ------    0.0   0.0   0.0   0.0   ----- 
Mon 21:30  SSE 19/ 30  19.3 11.9  ------    0.4   0.0   0.0   0.0   ----- 
Mon 21:30   SE 15/ 30  23.5 13.0  ------    0.0   0.0   0.0   0.0   ----- 
Mon 21:30  SSE 20/ 32  22.3 12.1  ------    0.0   0.0   0.0   0.0   ----- 
Mon 21:30  SSE 19/ 30  19.3 11.9  ------    0.4   0.0   0.0   0.0   ----- 
Mon 22:00  SSE 11/ 24  20.9 12.2  ------    0.0   0.0   0.0   0.0   ----- 
Mon 22:00  ESE 15/ 26  22.3 10.7  ------    0.0   0.0   0.0   0.0   ----- 
Mon 22:00  SSE 11/ 24  20.9 12.2  ------    0.0   0.0   0.0   0.0   ----- 
Mon 22:00  SSE 17/ 26  18.3 11.6  ------    0.4   0.0   0.0   0.0   ----- 
Mon 22:30   SE 13/ 24  20.6 10.4  ------    0.0   0.0   0.0   0.0   ----- 
Mon 22:30  SSE 15/ 22  19.6 12.1  ------    0.0   0.0   0.0   0.0   ----- 
Mon 22:30  SSE 13/ 24  17.4 11.5  ------    0.4   0.0   0.0   0.0   ----- 
Mon 23:00  SSE 15/ 26  18.7 12.0  ------    0.0   0.0   0.0   0.0   ----- 
Mon 23:00  SSE 15/ 26  18.7 12.0  ------    0.0   0.0  ----   0.0   ----- 
Mon 23:00   SE 11/ 19  19.4 11.1  ------    0.0   0.0   0.0   0.0   ----- 
Mon 23:00    S 11/ 24  16.5 11.1  ------    0.4   0.0   0.0   0.0   ----- 
Mon 23:00   SE 11/ 19  19.4 11.1  ------    0.0   0.0   0.0   0.0   ----- 
Mon 23:00    S 11/ 24  16.5 11.1  ------    0.4   0.0   0.0   0.0   ----- 

NEWDEGATE AG STATION

Site: 010GNE
Alt: m
km of


  Time     Wind        Temp  DP   Baro     Rain since   Rain past  Vis(m), Cloud(base in m), Weather
  local        km/h                         9am  last   hr   10m    
Mon 18:00  SSE 24/ 39  26.1 13.9  ------    0.0   0.0   0.0   0.0   ----- 
Mon 18:00  SSE 24/ 39  26.1 13.9  ------    0.0   0.0  ----   0.0   ----- 
Mon 18:30  SSE 17/ 32  24.9 13.9  ------    0.0   0.0   0.0   0.0   ----- 
Mon 19:00  SSE 19/ 30  23.3 13.8  ------    0.0   0.0   0.0   0.0   ----- 
Mon 19:00  SSE 19/ 30  23.3 13.8  ------    0.0   0.0  ----   0.0   ----- 
Mon 19:30   SE 15/ 30  21.7 14.1  ------    0.0   0.0   0.0   0.0   ----- 
Mon 20:00  SSE 13/ 32  20.1 13.8  ------    0.0   0.0   0.0   0.0   ----- 
Mon 20:30  SSE 13/ 26  18.7 13.9  ------    0.0   0.0   0.0   0.0   ----- 
Mon 21:00    S 15/ 26  17.8 13.4  ------    0.0   0.0   0.0   0.0   ----- 
Mon 21:30  SSE 17/ 28  16.8 12.9  ------    0.0   0.0   0.0   0.0   ----- 
Mon 21:30  SSE 17/ 28  16.8 12.9  ------    0.0   0.0  ----   0.0   ----- 
Mon 22:00  SSE 13/ 26  16.4 13.0  ------    0.0   0.0   0.0   0.0   ----- 
Mon 22:30  SSE  9/ 19  16.1 13.0  ------    0.0   0.0   0.0   0.0   ----- 
Mon 23:00  SSE 11/ 22  16.1 13.0  ------    0.0   0.0   0.0   0.0   ----- 
Mon 23:00  SSE 11/ 22  16.1 13.0  ------    0.0   0.0   0.0   0.0   ----- 

NEWDEGATE RESEARCH STATION

Site: 010692
Alt: 320.0m
35km E of LAKE GRACE


  Time     Wind        Temp  DP   Baro     Rain since   Rain past  Vis(m), Cloud(base in m), Weather
  local        km/h                         9am  last   hr   10m    
Mon 18:00   SE 33/ 46  26.3 13.8  1008.7    0.0   0.0   0.0   0.0   ----- 
Mon 18:00   SE 33/ 46  26.3 13.8  1008.7    0.0   0.0  ----   0.0   ----- 
Mon 18:30  SSE 26/ 33  24.9 13.8  1008.6    0.0   0.0   0.0   0.0   ----- 
Mon 19:00  SSE 26/ 37  23.3 13.5  1008.8    0.0   0.0   0.0   0.0   ----- 
Mon 19:30   SE 22/ 35  21.6 13.5  1009.3    0.0   0.0   0.0   0.0   ----- 
Mon 20:00   SE 20/ 32  20.1 13.3  1009.9    0.0   0.0   0.0   0.0   ----- 
Mon 20:30  SSE 19/ 28  18.7 13.3  1010.2    0.0   0.0   0.0   0.0   ----- 
Mon 21:00  SSE 22/ 30 --------  1010.5    0.0   0.0   0.0   0.0   ----- 
Mon 21:30  SSE 24/ 32  16.8 12.3  1010.6    0.0   0.0   0.0   0.0   ----- 
Mon 22:00  SSE 19/ 28  16.3 12.3  1011.1    0.0   0.0   0.0   0.0   ----- 
Mon 22:30  SSE 15/ 22 --------  1011.1    0.0   0.0   0.0   0.0   ----- 
Mon 23:00  SSE 17/ 24  15.9 12.3  1011.3    0.0   0.0   0.0   0.0   ----- 
Mon 23:00  SSE 17/ 24  15.9 12.3  1011.3    0.0   0.0  ----   0.0   ----- 

NORTHAM AG STATION

Site: 010GNO
Alt: m
km of


  Time     Wind        Temp  DP   Baro     Rain since   Rain past  Vis(m), Cloud(base in m), Weather
  local        km/h                         9am  last   hr   10m    
Mon 18:00   SW 13/ 28  30.1 14.9  ------    0.0   0.0   0.0   0.0   ----- 
Mon 18:00   SW 13/ 28  30.1 14.9  ------    0.0   0.0  ----   0.0   ----- 
Mon 18:00   SW 13/ 28  30.1 14.9  ------    0.0   0.0  ----   0.0   ----- 
Mon 18:00   SW 13/ 28  30.1 14.9  ------    0.0   0.0  ----   0.0   ----- 
Mon 18:30  WSW 11/ 26  28.5 14.6  ------    0.0   0.0   0.0   0.0   ----- 
Mon 18:30  WSW 11/ 26  28.5 14.6  ------    0.0   0.0  ----   0.0   ----- 
Mon 19:00   SW 11/ 26  27.3 14.0  ------    0.0   0.0   0.0   0.0   ----- 
Mon 19:30   SW 11/ 24  25.9 14.3  ------    0.0   0.0   0.0   0.0   ----- 
Mon 19:30   SW 11/ 24  25.9 14.3  ------    0.0   0.0  ----   0.0   ----- 
Mon 20:00    W  9/ 22  24.2 14.8  ------    0.0   0.0   0.0   0.0   ----- 
Mon 20:30  WSW  7/ 22  23.1 14.9  ------    0.0   0.0   0.0   0.0   ----- 
Mon 21:00  WSW  9/ 20  21.9 14.9  ------    0.0   0.0   0.0   0.0   ----- 
Mon 21:30  WSW 11/ 28  21.2 15.0  ------    0.0   0.0   0.0   0.0   ----- 
Mon 21:30  WSW 11/ 28  21.2 15.0  ------    0.0   0.0  ----   0.0   ----- 
Mon 22:00   SW  6/ 17  20.5 14.7  ------    0.0   0.0   0.0   0.0   ----- 
Mon 22:30   SW  4/ 17  20.0 14.5  ------    0.0   0.0   0.0   0.0   ----- 
Mon 23:00   SW  6/ 13  19.7 14.4  ------    0.0   0.0   0.0   0.0   ----- 
Mon 23:00   SW  6/ 13  19.7 14.4  ------    0.0   0.0  ----   0.0   ----- 

NYABING AG STATION

Site: 010YBE
Alt: 360m
73km ENE of KATANNING


  Time     Wind        Temp  DP   Baro     Rain since   Rain past  Vis(m), Cloud(base in m), Weather
  local        km/h                         9am  last   hr   10m    
Mon 18:00   SE 28/ 35  24.1 13.2  ------    0.0   0.0   0.0   0.0   ----- 
Mon 18:00   SE 28/ 35  24.1 13.2  ------    0.0   0.0  ----   0.0   ----- 
Mon 18:30   SE 26/ 35  23.0 12.9  ------    0.0   0.0   0.0   0.0   ----- 
Mon 19:00   SE 20/ 30  21.8 12.6  ------    0.0   0.0   0.0   0.0   ----- 
Mon 19:00   SE 20/ 30  21.8 12.6  ------    0.0   0.0  ----   0.0   ----- 
Mon 19:30   SE 19/ 26  20.3 12.2  ------    0.0   0.0   0.0   0.0   ----- 
Mon 20:00   SE 24/ 32  18.7 12.3  ------    0.0   0.0   0.0   0.0   ----- 
Mon 20:30   SE 22/ 32  17.4 12.7  ------    0.0   0.0   0.0   0.0   ----- 
Mon 21:00   SE 20/ 30  16.7 12.8  ------    0.0   0.0   0.0   0.0   ----- 
Mon 21:30  SSE 22/ 32  15.8 12.1  ------    0.0   0.0   0.0   0.0   ----- 
Mon 21:30  SSE 22/ 32  15.8 12.1  ------    0.0   0.0  ----   0.0   ----- 
Mon 22:00   SE 19/ 30  15.5 11.9  ------    0.0   0.0   0.0   0.0   ----- 
Mon 22:30  SSE 17/ 24  15.1 11.7  ------    0.0   0.0   0.0   0.0   ----- 
Mon 23:00    S 11/ 17  14.5 11.5  ------    0.0   0.0   0.0   0.0   ----- 
Mon 23:00    S 11/ 17  14.5 11.5  ------    0.0   0.0   0.0   0.0   ----- 

ONGERUP NORTH AG STATION

Site: 010GPW
Alt: 280m
16km N of ONGERUP


  Time     Wind        Temp  DP   Baro     Rain since   Rain past  Vis(m), Cloud(base in m), Weather
  local        km/h                         9am  last   hr   10m    
Mon 18:00  SSE 19/ 32  21.3 13.5  ------    0.2   0.0   0.0   0.0   ----- 
Mon 18:00  SSE 19/ 32  21.3 13.5  ------    0.2   0.0  ----   0.0   ----- 
Mon 18:30   SE 17/ 28  19.4 13.5  ------    0.2   0.0   0.0   0.0   ----- 
Mon 19:00   SE 17/ 28  17.8 13.4  ------    0.2   0.0   0.0   0.0   ----- 
Mon 19:00   SE 17/ 28  17.8 13.4  ------    0.2   0.0  ----   0.0   ----- 
Mon 19:30  SSE 15/ 28  17.1 13.8  ------    0.2   0.0   0.0   0.0   ----- 
Mon 20:00  SSE 15/ 28  16.3 13.4  ------    0.2   0.0   0.0   0.0   ----- 
Mon 20:30  SSE 15/ 26  15.9 13.0  ------    0.2   0.0   0.0   0.0   ----- 
Mon 21:00  SSE 13/ 24  15.8 12.5  ------    0.2   0.0   0.0   0.0   ----- 
Mon 21:30  SSE 13/ 26  15.4 12.1  ------    0.2   0.0   0.0   0.0   ----- 
Mon 21:30  SSE 13/ 26  15.4 12.1  ------    0.2   0.0  ----   0.0   ----- 
Mon 22:00    S  9/ 19  15.1 12.1  ------    0.2   0.0   0.0   0.0   ----- 
Mon 22:30    S  7/ 17  14.8 11.9  ------    0.2   0.0   0.0   0.0   ----- 
Mon 23:00  SSE 11/ 24  14.4 11.5  ------    0.2   0.0   0.0   0.0   ----- 
Mon 23:00  SSE 11/ 24  14.4 11.5  ------    0.2   0.0   0.0   0.0   ----- 

POPANYINNING AG STATION

Site: 010YNG
Alt: 310m
13km S of PINGELLY


  Time     Wind        Temp  DP   Baro     Rain since   Rain past  Vis(m), Cloud(base in m), Weather
  local        km/h                         9am  last   hr   10m    
Mon 18:00    S 11/ 22  31.6  7.5  ------    0.0   0.0   0.0   0.0   ----- 
Mon 18:00    S 11/ 22  31.6  7.5  ------    0.0   0.0  ----   0.0   ----- 
Mon 18:30    S 11/ 19  30.9  7.4  ------    0.0   0.0   0.0   0.0   ----- 
Mon 19:00    S  9/ 19  30.0  6.7  ------    0.0   0.0   0.0   0.0   ----- 
Mon 19:00    S  9/ 19  30.0  6.7  ------    0.0   0.0  ----   0.0   ----- 
Mon 19:30  SSW  6/ 11  28.6  5.5  ------    0.0   0.0   0.0   0.0   ----- 
Mon 20:00    S  9/ 17  27.9  6.1  ------    0.0   0.0   0.0   0.0   ----- 
Mon 20:30  SSW  7/ 13  27.0  6.8  ------    0.0   0.0   0.0   0.0   ----- 
Mon 20:30  SSW  7/ 13  27.0  6.8  ------    0.0   0.0  ----   0.0   ----- 
Mon 21:00  SSE  9/ 22  25.6 12.6  ------    0.0   0.0   0.0   0.0   ----- 
Mon 21:00  SSE  9/ 22  25.6 12.6  ------    0.0   0.0  ----   0.0   ----- 
Mon 21:30   SE 15/ 26  24.2 13.0  ------    0.0   0.0   0.0   0.0   ----- 
Mon 21:30   SE 15/ 26  24.2 13.0  ------    0.0   0.0  ----   0.0   ----- 
Mon 22:00  SSE 11/ 30  23.0 12.4  ------    0.0   0.0   0.0   0.0   ----- 
Mon 22:00  SSE 11/ 30  23.0 12.4  ------    0.0   0.0  ----   0.0   ----- 
Mon 22:30   SE  9/ 22  21.6 12.1  ------    0.0   0.0   0.0   0.0   ----- 
Mon 23:00  SSE  7/ 13  20.5 11.9  ------    0.0   0.0   0.0   0.0   ----- 
Mon 23:00  SSE  7/ 13  20.5 11.9  ------    0.0   0.0  ----   0.0   ----- 

QUALEUP AG STATION

Site: 010LUP
Alt: 290m
66km E of BRIDGETOWN


  Time     Wind        Temp  DP   Baro     Rain since   Rain past  Vis(m), Cloud(base in m), Weather
  local        km/h                         9am  last   hr   10m    
Mon 18:00    S 22/ 33  25.6 12.5  ------    0.0   0.0   0.0   0.0   ----- 
Mon 18:00    S 22/ 33  25.6 12.5  ------    0.0   0.0  ----   0.0   ----- 
Mon 18:30    S 20/ 32  23.3 12.8  ------    0.0   0.0   0.0   0.0   ----- 
Mon 19:00    S 20/ 33  21.1 12.6  ------    0.0   0.0   0.0   0.0   ----- 
Mon 19:00    S 20/ 33  21.1 12.6  ------    0.0   0.0  ----   0.0   ----- 
Mon 19:30    S 19/ 35  19.4 12.3  ------    0.0   0.0   0.0   0.0   ----- 
Mon 20:00    S 19/ 32  17.6 11.7  ------    0.0   0.0   0.0   0.0   ----- 
Mon 20:30    S 13/ 24  16.7 11.5  ------    0.0   0.0   0.0   0.0   ----- 
Mon 21:00    S 15/ 24  15.7 11.2  ------    0.0   0.0   0.0   0.0   ----- 
Mon 21:30  SSE 17/ 26  15.1 11.0  ------    0.0   0.0   0.0   0.0   ----- 
Mon 21:30  SSE 17/ 26  15.1 11.0  ------    0.0   0.0  ----   0.0   ----- 
Mon 22:00  SSE  7/ 19  15.0 11.0  ------    0.0   0.0   0.0   0.0   ----- 
Mon 22:30  SSE  6/ 17  14.9 10.9  ------    0.0   0.0   0.0   0.0   ----- 
Mon 23:00  SSE  6/ 15  14.9 10.9  ------    0.0   0.0   0.0   0.0   ----- 
Mon 23:00  SSE  6/ 15  14.9 10.9  ------    0.0   0.0   0.0   0.0   ----- 

RAVENSTHORPE AG STATION

Site: 010GRA
Alt: m
34km WNW of RAVENSTHORPE


  Time     Wind        Temp  DP   Baro     Rain since   Rain past  Vis(m), Cloud(base in m), Weather
  local        km/h                         9am  last   hr   10m    
Mon 18:00    S 20/ 28  18.4 14.9  ------    1.4   0.8   0.8   0.6   ----- 
Mon 18:00    S 20/ 28  18.4 14.9  ------    1.4   0.0  ----   0.6   ----- 
Mon 18:30  SSE 26/ 35  17.1 15.1  ------    8.8   7.4   8.2   0.4   ----- 
Mon 19:00   SE 22/ 30  16.6 14.8  ------    8.8   0.0   7.4   0.0   ----- 
Mon 19:00   SE 22/ 30  16.6 14.8  ------    8.8   0.0  ----   0.0   ----- 
Mon 19:30    S 20/ 26  16.4 14.7  ------    8.8   0.0   0.0   0.0   ----- 
Mon 20:00    S 17/ 24  16.3 15.0  ------    8.8   0.0   0.0   0.0   ----- 
Mon 20:30  SSE 19/ 24  15.7 14.6  ------    8.8   0.0   0.0   0.0   ----- 
Mon 21:00    S 24/ 32  15.7 14.6  ------    8.8   0.0   0.0   0.0   ----- 
Mon 21:30    S 22/ 33  15.8 14.6  ------    8.8   0.0   0.0   0.0   ----- 
Mon 21:30    S 22/ 33  15.8 14.6  ------    8.8   0.0  ----   0.0   ----- 
Mon 22:00  SSE 20/ 26  15.8 14.6  ------    8.8   0.0   0.0   0.0   ----- 
Mon 22:30  SSE 22/ 28  15.7 14.4  ------    8.8   0.0   0.0   0.0   ----- 
Mon 23:00    S 17/ 26  15.6 14.3  ------    8.8   0.0   0.0   0.0   ----- 
Mon 23:00    S 17/ 26  15.6 14.3  ------    8.8   0.0   0.0   0.0   ----- 

SHACKLETON AG STATION

Site: 010HKN
Alt: 290m
37km SSE of KELLERBERRIN


  Time     Wind        Temp  DP   Baro     Rain since   Rain past  Vis(m), Cloud(base in m), Weather
  local        km/h                         9am  last   hr   10m    
Mon 18:00  WSW 20/ 32  34.3  9.3  ------    0.0   0.0   0.0   0.0   ----- 
Mon 18:00  WSW 20/ 32  34.3  9.3  ------    0.0   0.0  ----   0.0   ----- 
Mon 18:00  WSW 20/ 32  34.3  9.3  ------    0.0   0.0  ----   0.0   ----- 
Mon 18:00  WSW 20/ 32  34.3  9.3  ------    0.0   0.0  ----   0.0   ----- 
Mon 18:30   SW 17/ 26  33.6  9.5  ------    0.0   0.0   0.0   0.0   ----- 
Mon 18:30   SW 17/ 26  33.6  9.5  ------    0.0   0.0  ----   0.0   ----- 
Mon 19:00    S 17/ 30  31.8  9.8  ------    0.0   0.0   0.0   0.0   ----- 
Mon 19:30    S 13/ 26  30.4  9.4  ------    0.0   0.0   0.0   0.0   ----- 
Mon 19:30    S 13/ 26  30.4  9.4  ------    0.0   0.0  ----   0.0   ----- 
Mon 20:00    S  9/ 17  29.3  9.3  ------    0.0   0.0   0.0   0.0   ----- 
Mon 20:30   SE 20/ 35  27.8 12.7  ------    0.0   0.0   0.0   0.0   ----- 
Mon 20:30   SE 20/ 35  27.8 12.7  ------    0.0   0.0  ----   0.0   ----- 
Mon 21:00   SE 17/ 30  26.3 12.7  ------    0.0   0.0   0.0   0.0   ----- 
Mon 21:00   SE 17/ 30  26.3 12.7  ------    0.0   0.0  ----   0.0   ----- 
Mon 21:30   SE 22/ 35  25.4 13.1  ------    0.0   0.0   0.0   0.0   ----- 
Mon 21:30   SE 22/ 35  25.4 13.1  ------    0.0   0.0  ----   0.0   ----- 
Mon 22:00   SE 22/ 35  24.6 12.9  ------    0.0   0.0   0.0   0.0   ----- 
Mon 22:00   SE 22/ 35  24.6 12.9  ------    0.0   0.0  ----   0.0   ----- 
Mon 22:30   SE 19/ 28  23.7 12.8  ------    0.0   0.0   0.0   0.0   ----- 
Mon 23:00   SE 15/ 24  22.9 12.9  ------    0.0   0.0   0.0   0.0   ----- 
Mon 23:00   SE 15/ 24  22.9 12.9  ------    0.0   0.0  ----   0.0   ----- 

STIRLINGS NORTH AG STATION

Site: 010LGS
Alt: 230m
50km NNE of MOUNT BARKER


  Time     Wind        Temp  DP   Baro     Rain since   Rain past  Vis(m), Cloud(base in m), Weather
  local        km/h                         9am  last   hr   10m    
Mon 18:00    S 26/ 39  23.0 12.9  ------    0.0   0.0   0.0   0.0   ----- 
Mon 18:00    S 26/ 39  23.0 12.9  ------    0.0   0.0  ----   0.0   ----- 
Mon 18:30  SSE 20/ 30  20.9 12.7  ------    0.0   0.0   0.0   0.0   ----- 
Mon 19:00  SSE 22/ 32  18.7 12.6  ------    0.0   0.0   0.0   0.0   ----- 
Mon 19:00  SSE 22/ 32  18.7 12.6  ------    0.0   0.0  ----   0.0   ----- 
Mon 19:30    S 17/ 26  17.1 12.4  ------    0.0   0.0   0.0   0.0   ----- 
Mon 20:00  SSE 17/ 26  16.2 12.0  ------    0.0   0.0   0.0   0.0   ----- 
Mon 20:30  SSE 17/ 24  15.6 11.9  ------    0.0   0.0   0.0   0.0   ----- 
Mon 21:00    S 13/ 24  15.1 11.8  ------    0.0   0.0   0.0   0.0   ----- 
Mon 21:30    S 13/ 22  14.8 11.6  ------    0.0   0.0   0.0   0.0   ----- 
Mon 21:30    S 13/ 22  14.8 11.6  ------    0.0   0.0  ----   0.0   ----- 
Mon 22:00    S 17/ 26  14.5 11.4  ------    0.0   0.0   0.0   0.0   ----- 
Mon 22:30    S 11/ 19  14.1 11.3  ------    0.0   0.0   0.0   0.0   ----- 
Mon 23:00    S  9/ 15  13.7 11.2  ------    0.0   0.0   0.0   0.0   ----- 
Mon 23:00    S  9/ 15  13.7 11.2  ------    0.0   0.0   0.0   0.0   ----- 

TRAYNING WEST AG STATION

Site: 010RNW
Alt: 290m
66km NW of MERREDIN


  Time     Wind        Temp  DP   Baro     Rain since   Rain past  Vis(m), Cloud(base in m), Weather
  local        km/h                         9am  last   hr   10m    
Mon 18:00   SW 15/ 26  34.6  9.4  ------    0.0   0.0   0.0   0.0   ----- 
Mon 18:00   SW 15/ 26  34.6  9.4  ------    0.0   0.0  ----   0.0   ----- 
Mon 18:30   SW 13/ 22  33.6  9.5  ------    0.0   0.0   0.0   0.0   ----- 
Mon 19:00   SW  7/ 15  32.0  9.5  ------    0.0   0.0   0.0   0.0   ----- 
Mon 19:00   SW  7/ 15  32.0  9.5  ------    0.0   0.0  ----   0.0   ----- 
Mon 19:30  SSW  6/ 13  30.5  9.8  ------    0.0   0.0   0.0   0.0   ----- 
Mon 20:00   SW 26/ 39  29.2 12.7  ------    0.0   0.0   0.0   0.0   ----- 
Mon 20:30  WSW 24/ 37  27.8 13.0  ------    0.0   0.0   0.0   0.0   ----- 
Mon 20:30  WSW 24/ 37  27.8 13.0  ------    0.0   0.0  ----   0.0   ----- 
Mon 21:00   SW 22/ 32  26.2 13.3  ------    0.0   0.0   0.0   0.0   ----- 
Mon 21:00   SW 22/ 32  26.2 13.3  ------    0.0   0.0  ----   0.0   ----- 
Mon 21:30   SW 15/ 28  25.3 13.3  ------    0.0   0.0   0.0   0.0   ----- 
Mon 21:30   SW 15/ 28  25.3 13.3  ------    0.0   0.0  ----   0.0   ----- 
Mon 22:00  SSW  7/ 15  24.4 13.5  ------    0.0   0.0   0.0   0.0   ----- 
Mon 22:00  SSW  7/ 15  24.4 13.5  ------    0.0   0.0  ----   0.0   ----- 
Mon 22:30   SW 13/ 30  23.9 13.6  ------    0.0   0.0   0.0   0.0   ----- 
Mon 23:00   SW 15/ 22  22.8 13.6  ------    0.0   0.0   0.0   0.0   ----- 
Mon 23:00   SW 15/ 22  22.8 13.6  ------    0.0   0.0  ----   0.0   ----- 

TUNNEY AG STATION

Site: 010NNY
Alt: 250m
35km SE of KOJONUP


  Time     Wind        Temp  DP   Baro     Rain since   Rain past  Vis(m), Cloud(base in m), Weather
  local        km/h                         9am  last   hr   10m    
Mon 18:00    S 13/ 28  24.4 11.6  ------    0.0   0.0   0.0   0.0   ----- 
Mon 18:00    S 13/ 28  24.4 11.6  ------    0.0   0.0  ----   0.0   ----- 
Mon 18:30    S 13/ 26  22.2 11.7  ------    0.0   0.0   0.0   0.0   ----- 
Mon 19:00    S 15/ 28  19.9 11.6  ------    0.0   0.0   0.0   0.0   ----- 
Mon 19:00    S 15/ 28  19.9 11.6  ------    0.0   0.0  ----   0.0   ----- 
Mon 19:30    S 11/ 22  17.8 11.2  ------    0.0   0.0   0.0   0.0   ----- 
Mon 20:00  SSE  7/ 17  16.7 11.0  ------    0.0   0.0   0.0   0.0   ----- 
Mon 20:30    S  9/ 20  15.8 10.4  ------    0.0   0.0   0.0   0.0   ----- 
Mon 21:00    S  9/ 17  15.2 10.3  ------    0.0   0.0   0.0   0.0   ----- 
Mon 21:30    S  6/ 11  14.6 10.2  ------    0.0   0.0   0.0   0.0   ----- 
Mon 21:30    S  6/ 11  14.6 10.2  ------    0.0   0.0  ----   0.0   ----- 
Mon 22:00    S  2/  7  14.1 10.1  ------    0.0   0.0   0.0   0.0   ----- 
Mon 22:30  SSE  2/  6  13.6 10.3  ------    0.0   0.0   0.0   0.0   ----- 
Mon 23:00  ESE  2/  4  12.9 10.0  ------    0.0   0.0   0.0   0.0   ----- 
Mon 23:00  ESE  2/  4  12.9 10.0  ------    0.0   0.0   0.0   0.0   ----- 

WANDERING

Site: 010917
Alt: 275.0m
56km WNW of NARROGIN


  Time     Wind        Temp  DP   Baro     Rain since   Rain past  Vis(m), Cloud(base in m), Weather
  local        km/h                         9am  last   hr   10m    
Mon 18:00   SW 11/ 20  32.0  7.6  ------    0.0   0.0   0.0   0.0   ----- 
Mon 18:00   SW 11/ 20  32.0  7.6  ------    0.0   0.0  ----   0.0   ----- 
Mon 19:00  WSW 11/ 20  28.0 12.8  ------    0.0   0.0   0.0   0.0   ----- 
Mon 20:00    W  9/ 17  25.4 13.3  ------    0.0   0.0   0.0   0.0   ----- 
Mon 21:00   SW  9/ 15  23.7 14.1  ------    0.0   0.0   0.0   0.0   ----- 
Mon 22:00  SSE 17/ 30  22.6 12.8  ------    0.0   0.0   0.0   0.0   ----- 
Mon 23:00    S 15/ 24  20.4 12.6  ------    0.0   0.0   0.0   0.0   ----- 
Mon 23:00    S 15/ 24  20.4 12.6  ------    0.0   0.0  ----   0.0   ----- 

WICKEPIN AG STATION

Site: 010GWI
Alt: 339.0m
56km E of NARROGIN


  Time     Wind        Temp  DP   Baro     Rain since   Rain past  Vis(m), Cloud(base in m), Weather
  local        km/h                         9am  last   hr   10m    
Mon 18:00   SE 13/ 24  31.7  9.7  ------    0.0   0.0   0.0   0.0   ----- 
Mon 18:00   SE 13/ 24  31.7  9.7  ------    0.0   0.0  ----   0.0   ----- 
Mon 18:30  ESE 13/ 26  30.3 10.4  ------    0.0   0.0   0.0   0.0   ----- 
Mon 19:00  ESE  9/ 17  29.1 10.8  ------    0.0   0.0   0.0   0.0   ----- 
Mon 19:30    E 20/ 35  25.3 13.7  ------    0.0   0.0   0.0   0.0   ----- 
Mon 20:00    E 17/ 30  23.9 13.2  ------    0.0   0.0   0.0   0.0   ----- 
Mon 20:30    E 17/ 26  22.6 13.0  ------    0.0   0.0   0.0   0.0   ----- 
Mon 21:00    E 17/ 28  21.5 12.9  ------    0.0   0.0   0.0   0.0   ----- 
Mon 21:30    E 17/ 30  20.1 12.6  ------    0.0   0.0   0.0   0.0   ----- 
Mon 22:00    E 13/ 22  19.2 12.4  ------    0.0   0.0   0.0   0.0   ----- 
Mon 22:30  ESE 13/ 22  17.8 12.2  ------    0.0   0.0   0.0   0.0   ----- 
Mon 23:00  ESE  7/ 17  16.9 12.6  ------    0.0   0.0   0.0   0.0   ----- 
Mon 23:00  ESE  7/ 17  16.9 12.6  ------    0.0   0.0  ----   0.0   ----- 

WICKEPIN EAST AG STATION

Site: 010GEW
Alt: 334 m
88km ENE of NARROGIN


  Time     Wind        Temp  DP   Baro     Rain since   Rain past  Vis(m), Cloud(base in m), Weather
  local        km/h                         9am  last   hr   10m    
Mon 18:00    S 19/ 26  31.8 10.1  ------    0.0   0.0   0.0   0.0   ----- 
Mon 18:00    S 19/ 26  31.8 10.1  ------    0.0   0.0  ----   0.0   ----- 
Mon 18:00    S 19/ 26  31.8 10.1  ------    0.0   0.0  ----   0.0   ----- 
Mon 18:00    S 19/ 26  31.8 10.1  ------    0.0   0.0  ----   0.0   ----- 
Mon 18:30    S 17/ 24  30.7 11.1  ------    0.0   0.0   0.0   0.0   ----- 

Mon 18:30    S 17/ 24  30.7 11.1  ------    0.0   0.0  ----   0.0   ----- 
Mon 19:00  SSE 11/ 22  29.3 11.6  ------    0.0   0.0   0.0   0.0   ----- 
Mon 19:30   SE 22/ 35  26.3 13.9  ------    0.0   0.0   0.0   0.0   ----- 
Mon 19:30   SE 22/ 35  26.3 13.9  ------    0.0   0.0  ----   0.0   ----- 
Mon 20:00   SE 20/ 35  23.9 13.9  ------    0.0   0.0   0.0   0.0   ----- 
Mon 20:30   SE 15/ 32  22.8 13.8  ------    0.0   0.0   0.0   0.0   ----- 
Mon 21:00   SE 19/ 37  22.1 12.9  ------    0.0   0.0   0.0   0.0   ----- 
Mon 21:30   SE 15/ 28  20.4 12.2  ------    0.0   0.0   0.0   0.0   ----- 
Mon 21:30   SE 15/ 28  20.4 12.2  ------    0.0   0.0  ----   0.0   ----- 
Mon 22:00   SE 15/ 26  19.1 11.4  ------    0.0   0.0   0.0   0.0   ----- 
Mon 22:00   SE 15/ 26  19.1 11.4  ------    0.0   0.0  ----   0.0   ----- 
Mon 22:30   SE  9/ 17  18.3 11.6  ------    0.0   0.0   0.0   0.0   ----- 
Mon 23:00   SE  9/ 24  17.5 11.9  ------    0.0   0.0   0.0   0.0   ----- 
Mon 23:00   SE  9/ 24  17.5 11.9  ------    0.0   0.0  ----   0.0   -----